createdAt,value
2018-04-19T00:00:59.329Z,57.47
2018-04-19T00:04:01.817Z,51.03
2018-04-19T00:07:04.329Z,53.07
2018-04-19T00:10:06.845Z,50.07
2018-04-19T00:13:09.384Z,56.90
2018-04-19T00:16:11.791Z,59.57
2018-04-19T00:19:14.283Z,54.47
2018-04-19T00:22:16.753Z,48.33
2018-04-19T00:25:19.355Z,52.00
2018-04-19T00:28:21.843Z,47.67
2018-04-19T00:31:24.282Z,48.80
2018-04-19T00:34:26.821Z,48.87
2018-04-19T00:37:29.243Z,47.70
2018-04-19T00:40:31.892Z,55.70
2018-04-19T00:43:34.364Z,49.93
2018-04-19T00:46:36.965Z,52.80
2018-04-19T00:49:39.475Z,53.97
2018-04-19T00:52:53.585Z,46.17
2018-04-19T00:55:56.039Z,44.77
2018-04-19T00:58:58.576Z,47.97
2018-04-19T01:02:01.033Z,45.90
2018-04-19T01:05:03.545Z,45.57
2018-04-19T01:08:05.999Z,43.60
2018-04-19T01:11:08.463Z,52.30
2018-04-19T01:14:10.980Z,41.30
2018-04-19T01:17:13.474Z,45.33
2018-04-19T01:20:15.991Z,40.43
2018-04-19T01:23:18.525Z,41.30
2018-04-19T01:26:20.980Z,44.43
2018-04-19T01:29:23.445Z,42.50
2018-04-19T01:32:25.927Z,48.83
2018-04-19T01:35:40.230Z,40.53
2018-04-19T01:38:42.725Z,44.10
2018-04-19T01:41:45.229Z,43.27
2018-04-19T01:44:48.018Z,48.17
2018-04-19T01:47:50.504Z,40.73
2018-04-19T01:50:52.959Z,43.93
2018-04-19T01:53:55.469Z,41.93
2018-04-19T01:56:57.956Z,39.50
2018-04-19T02:00:00.446Z,37.17
2018-04-19T02:03:02.880Z,40.07
2018-04-19T02:06:05.385Z,41.63
2018-04-19T02:09:07.850Z,37.80
2018-04-19T02:12:10.345Z,39.57
2018-04-19T02:15:12.822Z,34.37
2018-04-19T02:18:15.281Z,36.80
2018-04-19T02:21:17.814Z,32.97
2018-04-19T02:24:20.276Z,39.77
2018-04-19T02:27:22.881Z,33.20
2018-04-19T02:30:25.331Z,40.50
2018-04-19T02:33:27.821Z,37.07
2018-04-19T02:36:30.311Z,31.47
2018-04-19T02:39:32.818Z,36.37
2018-04-19T02:42:35.318Z,37.97
2018-04-19T02:45:37.799Z,40.33
2018-04-19T02:48:40.323Z,35.37
2018-04-19T02:51:42.835Z,33.83
2018-04-19T02:54:45.332Z,45.80
2018-04-19T02:57:47.847Z,37.17
2018-04-19T03:00:50.345Z,33.50
2018-04-19T03:03:52.825Z,39.07
2018-04-19T03:06:55.283Z,36.23
2018-04-19T03:09:57.797Z,39.27
2018-04-19T03:13:00.279Z,45.07
2018-04-19T03:16:02.758Z,36.47
2018-04-19T03:19:05.229Z,41.73
2018-04-19T03:22:07.735Z,41.10
2018-04-19T03:25:10.246Z,40.27
2018-04-19T03:28:12.731Z,35.53
2018-04-19T03:31:15.246Z,35.00
2018-04-19T03:34:17.686Z,37.57
2018-04-19T03:37:20.171Z,33.67
2018-04-19T03:40:22.668Z,36.07
2018-04-19T03:43:25.181Z,35.43
2018-04-19T03:46:27.770Z,31.20
2018-04-19T03:49:30.277Z,34.53
2018-04-19T03:52:32.775Z,33.57
2018-04-19T03:55:35.241Z,38.27
2018-04-19T03:58:37.742Z,34.27
2018-04-19T04:01:40.237Z,35.60
2018-04-19T04:04:42.761Z,32.30
2018-04-19T04:07:45.286Z,29.00
2018-04-19T04:10:47.775Z,34.90
2018-04-19T04:13:50.252Z,27.33
2018-04-19T04:17:04.564Z,30.70
2018-04-19T04:20:18.992Z,34.00
2018-04-19T04:23:33.276Z,31.40
2018-04-19T04:26:35.753Z,36.37
2018-04-19T04:29:38.261Z,35.80
2018-04-19T04:32:40.762Z,35.17
2018-04-19T04:35:43.241Z,37.77
2018-04-19T04:38:45.746Z,46.43
2018-04-19T04:41:48.216Z,37.13
2018-04-19T04:44:50.718Z,37.13
2018-04-19T04:47:53.224Z,34.43
2018-04-19T04:50:55.715Z,34.67
2018-04-19T04:53:58.226Z,32.77
2018-04-19T04:57:00.776Z,28.70
2018-04-19T05:00:03.352Z,29.93
2018-04-19T05:03:05.860Z,29.73
2018-04-19T05:06:08.521Z,26.67
2018-04-19T05:09:11.048Z,32.90
2018-04-19T05:12:13.547Z,31.87
2018-04-19T05:15:16.067Z,33.60
2018-04-19T05:18:18.528Z,25.17
2018-04-19T05:21:21.015Z,24.50
2018-04-19T05:24:23.486Z,25.33
2018-04-19T05:27:26.012Z,27.70
2018-04-19T05:30:28.506Z,24.50
2018-04-19T05:33:31.092Z,25.37
2018-04-19T05:36:33.607Z,23.17
2018-04-19T05:39:36.051Z,26.50
2018-04-19T05:42:38.546Z,27.30
2018-04-19T05:45:41.078Z,22.83
2018-04-19T05:48:43.596Z,24.20
2018-04-19T05:51:46.175Z,21.63
2018-04-19T05:54:48.766Z,23.43
2018-04-19T05:57:51.281Z,19.20
2018-04-19T06:00:53.796Z,22.73
2018-04-19T06:03:56.353Z,23.30
2018-04-19T06:06:58.917Z,20.43
2018-04-19T06:10:01.483Z,20.00
2018-04-19T06:13:03.975Z,23.70
2018-04-19T06:16:06.469Z,20.90
2018-04-19T06:19:08.982Z,21.27
2018-04-19T06:22:11.476Z,21.63
2018-04-19T06:25:13.963Z,21.57
2018-04-19T06:28:16.553Z,21.70
2018-04-19T06:31:19.029Z,21.63
2018-04-19T06:34:21.603Z,18.80
2018-04-19T06:37:24.241Z,18.67
2018-04-19T06:40:26.708Z,18.63
2018-04-19T06:43:29.184Z,19.00
2018-04-19T06:46:31.628Z,17.87
2018-04-19T06:49:34.284Z,18.30
2018-04-19T06:52:36.878Z,18.20
2018-04-19T06:55:39.413Z,19.87
2018-04-19T06:58:41.917Z,22.30
2018-04-19T07:01:44.417Z,23.80
2018-04-19T07:04:46.882Z,21.23
2018-04-19T07:07:49.398Z,28.33
2018-04-19T07:10:51.862Z,21.53
2018-04-19T07:13:54.383Z,25.17
2018-04-19T07:16:56.877Z,25.60
2018-04-19T07:19:59.503Z,26.43
2018-04-19T07:23:02.025Z,23.17
2018-04-19T07:26:04.537Z,27.60
2018-04-19T07:29:07.394Z,25.50
2018-04-19T07:32:09.901Z,26.43
2018-04-19T07:35:12.403Z,26.70
2018-04-19T07:38:14.868Z,28.60
2018-04-19T07:41:17.372Z,25.60
2018-04-19T07:44:19.853Z,39.27
2018-04-19T07:47:22.367Z,27.70
2018-04-19T07:50:24.932Z,27.10
2018-04-19T07:53:27.578Z,29.13
2018-04-19T07:56:30.058Z,27.93
2018-04-19T07:59:32.562Z,23.87
2018-04-19T08:02:35.073Z,28.90
2018-04-19T08:05:37.545Z,25.50
2018-04-19T08:08:40.044Z,27.33
2018-04-19T08:11:42.598Z,27.77
2018-04-19T08:14:45.068Z,27.87
2018-04-19T08:17:47.588Z,31.07
2018-04-19T08:20:50.123Z,29.43
2018-04-19T08:23:52.629Z,28.73
2018-04-19T08:26:55.098Z,28.27
2018-04-19T08:29:57.593Z,30.60
2018-04-19T08:33:00.143Z,30.63
2018-04-19T08:36:02.609Z,31.00
2018-04-19T08:39:05.830Z,31.03
2018-04-19T08:42:08.411Z,36.47
2018-04-19T08:45:10.884Z,27.07
2018-04-19T08:48:13.372Z,30.63
2018-04-19T08:51:15.875Z,27.17
2018-04-19T08:54:18.358Z,33.10
2018-04-19T08:57:20.850Z,29.40
2018-04-19T09:00:23.349Z,33.23
2018-04-19T09:03:25.830Z,27.20
2018-04-19T09:06:28.313Z,27.73
2018-04-19T09:09:30.848Z,27.80
2018-04-19T09:12:33.316Z,27.57
2018-04-19T09:15:35.828Z,28.93
2018-04-19T09:18:38.340Z,27.90
2018-04-19T09:21:40.800Z,28.00
2018-04-19T09:24:43.323Z,26.10
2018-04-19T09:27:45.819Z,27.10
2018-04-19T09:30:48.319Z,29.10
2018-04-19T09:33:50.785Z,27.13
2018-04-19T09:36:53.291Z,26.13
2018-04-19T09:39:55.780Z,32.47
2018-04-19T09:42:58.251Z,25.30
2018-04-19T09:46:00.744Z,28.00
2018-04-19T09:49:03.224Z,28.10
2018-04-19T09:52:05.723Z,30.10
2018-04-19T09:55:08.404Z,27.87
2018-04-19T09:58:10.858Z,26.50
2018-04-19T10:01:13.420Z,37.53
2018-04-19T10:04:16.053Z,26.73
2018-04-19T10:07:18.555Z,28.80
2018-04-19T10:10:21.044Z,28.77
2018-04-19T10:13:23.498Z,24.60
2018-04-19T10:16:25.991Z,25.53
2018-04-19T10:19:28.491Z,26.57
2018-04-19T10:22:30.976Z,26.70
2018-04-19T10:25:33.459Z,27.87
2018-04-19T10:28:36.017Z,30.67
2018-04-19T10:31:39.754Z,24.50
2018-04-19T10:34:42.244Z,28.77
2018-04-19T10:37:44.730Z,27.53
2018-04-19T10:40:47.225Z,27.47
2018-04-19T10:43:49.731Z,26.77
2018-04-19T10:46:52.229Z,21.40
2018-04-19T10:49:54.725Z,27.40
2018-04-19T10:52:57.215Z,27.17
2018-04-19T10:55:59.696Z,25.27
2018-04-19T10:59:02.166Z,28.93
2018-04-19T11:02:04.656Z,25.10
2018-04-19T11:05:07.106Z,24.97
2018-04-19T11:08:09.620Z,23.07
2018-04-19T11:11:12.129Z,29.37
2018-04-19T11:14:14.725Z,23.90
2018-04-19T11:17:17.265Z,22.90
2018-04-19T11:20:19.759Z,20.70
2018-04-19T11:23:22.230Z,20.80
2018-04-19T11:26:24.713Z,22.60
2018-04-19T11:29:27.300Z,20.43
2018-04-19T11:32:29.781Z,20.20
2018-04-19T11:35:32.304Z,18.60
2018-04-19T11:38:34.790Z,12.77
2018-04-19T11:41:37.294Z,11.00
2018-04-19T11:44:39.756Z,14.23
2018-04-19T11:47:42.244Z,16.93
2018-04-19T11:50:44.745Z,13.87
2018-04-19T11:53:47.184Z,18.10
2018-04-19T11:56:49.661Z,18.47
2018-04-19T11:59:52.145Z,17.37
2018-04-19T12:02:54.643Z,16.70
2018-04-19T12:05:57.149Z,17.50
2018-04-19T12:08:59.630Z,15.53
2018-04-19T12:12:02.127Z,16.80
2018-04-19T12:15:04.683Z,15.00
2018-04-19T12:18:07.190Z,12.53
2018-04-19T12:21:09.787Z,12.00
2018-04-19T12:24:12.296Z,15.47
2018-04-19T12:27:14.774Z,15.50
2018-04-19T12:30:17.282Z,17.13
2018-04-19T12:33:19.791Z,17.70
2018-04-19T12:36:22.371Z,15.80
2018-04-19T12:39:24.881Z,15.10
2018-04-19T12:42:27.362Z,17.40
2018-04-19T12:45:29.883Z,15.43
2018-04-19T12:48:32.456Z,15.27
2018-04-19T12:51:34.918Z,13.37
2018-04-19T12:54:37.417Z,13.07
2018-04-19T12:57:39.896Z,12.47
2018-04-19T13:00:42.377Z,11.10
2018-04-19T13:03:44.889Z,13.20
2018-04-19T13:06:47.398Z,9.83
2018-04-19T13:09:49.881Z,10.93
2018-04-19T13:12:52.506Z,10.27
2018-04-19T13:15:54.965Z,9.80
2018-04-19T13:18:57.471Z,9.33
2018-04-19T13:21:59.941Z,9.90
2018-04-19T13:25:02.464Z,10.80
2018-04-19T13:28:04.985Z,9.23
2018-04-19T13:31:07.484Z,14.20
2018-04-19T13:34:10.001Z,10.13
2018-04-19T13:37:12.447Z,9.70
2018-04-19T13:40:14.919Z,7.40
2018-04-19T13:43:17.477Z,7.93
2018-04-19T13:46:19.955Z,11.13
2018-04-19T13:49:22.427Z,10.10
2018-04-19T13:52:24.932Z,11.97
2018-04-19T13:55:27.392Z,7.47
2018-04-19T13:58:29.947Z,9.10
2018-04-19T14:01:32.449Z,8.87
2018-04-19T14:04:34.933Z,6.20
2018-04-19T14:07:37.441Z,9.63
2018-04-19T14:10:39.930Z,6.63
2018-04-19T14:13:42.446Z,9.80
2018-04-19T14:16:44.948Z,7.47
2018-04-19T14:19:47.503Z,8.10
2018-04-19T14:22:50.029Z,7.63
2018-04-19T14:25:52.584Z,7.53
2018-04-19T14:28:55.006Z,8.37
2018-04-19T14:31:57.491Z,7.60
2018-04-19T14:34:59.988Z,7.73
2018-04-19T14:38:02.505Z,8.37
2018-04-19T14:41:04.965Z,9.20
2018-04-19T14:44:07.430Z,7.77
2018-04-19T14:47:09.919Z,9.50
2018-04-19T14:50:12.449Z,7.00
2018-04-19T14:53:15.004Z,6.07
2018-04-19T14:56:17.454Z,9.20
2018-04-19T14:59:19.993Z,6.50
2018-04-19T15:02:22.488Z,12.43
2018-04-19T15:05:24.997Z,6.57
2018-04-19T15:08:27.609Z,7.40
2018-04-19T15:11:30.167Z,11.40
2018-04-19T15:14:32.648Z,7.67
2018-04-19T15:17:35.151Z,9.03
2018-04-19T15:20:37.663Z,9.30
2018-04-19T15:23:40.173Z,11.00
2018-04-19T15:26:42.736Z,7.97
2018-04-19T15:29:45.272Z,8.23
2018-04-19T15:32:48.670Z,9.87
2018-04-19T15:35:51.189Z,10.20
2018-04-19T15:38:53.729Z,8.00
2018-04-19T15:41:56.332Z,13.30
2018-04-19T15:44:58.798Z,10.67
2018-04-19T15:48:01.353Z,8.90
2018-04-19T15:51:03.972Z,12.77
2018-04-19T15:54:06.440Z,10.70
2018-04-19T15:57:08.987Z,11.23
2018-04-19T16:00:11.614Z,9.77
2018-04-19T16:03:14.090Z,14.40
2018-04-19T16:06:16.624Z,13.40
2018-04-19T16:09:19.090Z,14.20
2018-04-19T16:12:21.675Z,12.17
2018-04-19T16:15:24.114Z,10.47
2018-04-19T16:18:26.636Z,14.77
2018-04-19T16:21:29.108Z,14.07
2018-04-19T16:24:31.630Z,17.93
2018-04-19T16:27:34.129Z,15.97
2018-04-19T16:30:36.644Z,16.97
2018-04-19T16:33:39.229Z,20.50
2018-04-19T16:36:41.737Z,19.03
2018-04-19T16:39:44.232Z,23.50
2018-04-19T16:42:46.697Z,18.57
2018-04-19T16:45:49.225Z,21.20
2018-04-19T16:48:51.787Z,19.57
2018-04-19T16:51:54.308Z,20.00
2018-04-19T16:54:56.946Z,16.70
2018-04-19T16:57:59.471Z,20.67
2018-04-19T17:01:02.036Z,26.00
2018-04-19T17:04:04.523Z,19.97
2018-04-19T17:07:07.028Z,28.53
2018-04-19T17:10:09.631Z,24.07
2018-04-19T17:13:12.141Z,26.27
2018-04-19T17:16:14.652Z,24.37
2018-04-19T17:19:17.171Z,24.23
2018-04-19T17:22:19.783Z,22.27
2018-04-19T17:25:22.336Z,25.93
2018-04-19T17:28:24.887Z,22.00
2018-04-19T17:31:27.432Z,27.17
2018-04-19T17:34:30.057Z,25.03
2018-04-19T17:37:32.569Z,25.27
2018-04-19T17:40:35.769Z,35.43
2018-04-19T17:43:38.331Z,30.27
2018-04-19T17:46:40.940Z,30.43
2018-04-19T17:49:43.473Z,26.70
2018-04-19T17:52:45.928Z,29.53
2018-04-19T17:55:48.431Z,29.97
2018-04-19T17:58:50.935Z,26.50
2018-04-19T18:01:53.401Z,30.73
2018-04-19T18:04:55.970Z,29.87
2018-04-19T18:07:58.468Z,35.37
2018-04-19T18:11:01.013Z,32.40
2018-04-19T18:14:03.470Z,31.90
2018-04-19T18:17:06.060Z,27.63
2018-04-19T18:20:08.616Z,30.00
2018-04-19T18:23:11.235Z,28.60
2018-04-19T18:26:13.780Z,30.37
2018-04-19T18:29:16.384Z,27.93
2018-04-19T18:32:18.911Z,31.87
2018-04-19T18:35:21.421Z,31.67
2018-04-19T18:38:23.913Z,31.63
2018-04-19T18:41:26.460Z,32.60
2018-04-19T18:44:28.974Z,34.10
2018-04-19T18:47:31.477Z,31.53
2018-04-19T18:50:33.992Z,32.33
2018-04-19T18:53:36.454Z,32.70
2018-04-19T18:56:39.079Z,30.27
2018-04-19T18:59:41.491Z,40.80
2018-04-19T19:02:44.012Z,34.93
2018-04-19T19:05:46.488Z,38.00
2018-04-19T19:08:49.039Z,33.97
2018-04-19T19:11:51.519Z,33.80
2018-04-19T19:14:54.066Z,38.40
2018-04-19T19:21:31.199Z,41.57
2018-04-19T19:24:33.689Z,37.00
2018-04-19T19:27:36.237Z,39.23
2018-04-19T19:30:38.727Z,38.40
2018-04-19T19:33:41.244Z,43.80
2018-04-19T19:36:43.965Z,37.13
2018-04-19T19:39:46.564Z,39.17
2018-04-19T19:42:49.016Z,36.17
2018-04-19T19:45:52.785Z,41.13
2018-04-19T19:48:55.283Z,40.63
2018-04-19T19:51:57.940Z,42.73
2018-04-19T19:55:00.477Z,41.50
2018-04-19T19:58:03.022Z,41.47
2018-04-19T20:01:05.536Z,39.90
2018-04-19T20:04:08.007Z,39.40
2018-04-19T20:07:10.602Z,37.40
2018-04-19T20:10:12.993Z,40.10
2018-04-19T20:13:15.579Z,42.60
2018-04-19T20:16:18.102Z,42.93
2018-04-19T20:19:20.656Z,42.33
2018-04-19T20:22:23.242Z,38.90
2018-04-19T20:25:25.745Z,37.30
2018-04-19T20:28:28.260Z,43.63
2018-04-19T20:31:30.788Z,40.60
2018-04-19T20:34:33.284Z,37.27
2018-04-19T20:37:35.846Z,41.80
2018-04-19T20:40:38.415Z,40.60
2018-04-19T20:43:40.915Z,42.00
2018-04-19T20:46:43.465Z,42.60
2018-04-19T20:49:45.973Z,39.87
2018-04-19T20:52:48.455Z,38.47
2018-04-19T20:55:51.000Z,36.80
2018-04-19T20:58:53.473Z,37.10
2018-04-19T21:01:55.972Z,36.47
2018-04-19T21:04:58.491Z,40.70
2018-04-19T21:08:01.025Z,36.60
2018-04-19T21:11:03.513Z,41.50
2018-04-19T21:14:06.135Z,41.10
2018-04-19T21:17:08.632Z,36.97
2018-04-19T21:20:11.108Z,32.73
2018-04-19T21:23:13.630Z,32.77
2018-04-19T21:26:16.116Z,34.57
2018-04-19T21:29:18.605Z,31.73
2018-04-19T21:32:21.067Z,33.63
2018-04-19T21:35:23.571Z,35.30
2018-04-19T21:38:26.032Z,36.43
2018-04-19T21:41:28.579Z,39.67
2018-04-19T21:44:31.182Z,30.20
2018-04-19T21:47:33.742Z,40.63
2018-04-19T21:50:36.202Z,31.70
2018-04-19T21:53:38.683Z,35.67
2018-04-19T21:56:41.135Z,36.70
2018-04-19T21:59:43.649Z,37.40
2018-04-19T22:02:46.141Z,40.73
2018-04-19T22:05:48.637Z,34.63
2018-04-19T22:08:51.203Z,37.30
2018-04-19T22:11:53.701Z,35.33
2018-04-19T22:14:56.173Z,40.53
2018-04-19T22:17:58.663Z,34.57
2018-04-19T22:21:01.150Z,35.17
2018-04-19T22:24:03.664Z,32.90
2018-04-19T22:27:06.244Z,34.30
2018-04-19T22:30:08.865Z,31.50
2018-04-19T22:33:11.375Z,40.83
2018-04-19T22:36:13.933Z,33.63
2018-04-19T22:39:16.462Z,39.67
2018-04-19T22:42:18.937Z,31.90
2018-04-19T22:45:21.551Z,38.17
2018-04-19T22:48:24.044Z,31.73
2018-04-19T22:51:26.591Z,33.30
2018-04-19T22:57:37.969Z,33.87
2018-04-19T23:00:40.535Z,32.70
2018-04-19T23:03:43.001Z,34.37
2018-04-19T23:06:45.544Z,34.37
2018-04-19T23:09:48.056Z,30.30
2018-04-19T23:12:50.758Z,28.97
2018-04-19T23:15:53.254Z,40.57
2018-04-19T23:18:55.805Z,28.83
2018-04-19T23:21:58.280Z,35.57
2018-04-19T23:25:00.876Z,32.10
2018-04-19T23:28:03.434Z,31.80
2018-04-19T23:31:05.904Z,33.00
2018-04-19T23:34:08.422Z,29.93
2018-04-19T23:37:10.966Z,30.67
2018-04-19T23:40:13.481Z,32.33
2018-04-19T23:43:15.977Z,36.40
2018-04-19T23:46:18.499Z,34.10
2018-04-19T23:49:21.031Z,29.23
2018-04-19T23:52:23.494Z,34.00
2018-04-19T23:55:26.145Z,34.63
2018-04-19T23:58:28.650Z,35.47
